sensor_id;sensor_type;location;lat;lon;timestamp;temperature;humidity
9006;DHT22;62284;50.702;7.140;2022-07-23T00:01:18;21.30;91.70
9006;DHT22;62284;50.702;7.140;2022-07-23T00:03:46;21.30;91.90
9006;DHT22;62284;50.702;7.140;2022-07-23T00:06:13;21.40;91.90
9006;DHT22;62284;50.702;7.140;2022-07-23T00:08:40;21.40;92.00
9006;DHT22;62284;50.702;7.140;2022-07-23T00:11:07;21.40;92.00
9006;DHT22;62284;50.702;7.140;2022-07-23T00:13:34;21.50;91.70
9006;DHT22;62284;50.702;7.140;2022-07-23T00:16:01;21.50;91.50
9006;DHT22;62284;50.702;7.140;2022-07-23T00:18:29;21.50;91.30
9006;DHT22;62284;50.702;7.140;2022-07-23T00:20:57;21.50;91.60
9006;DHT22;62284;50.702;7.140;2022-07-23T00:23:24;21.50;91.50
9006;DHT22;62284;50.702;7.140;2022-07-23T00:25:52;21.50;91.20
9006;DHT22;62284;50.702;7.140;2022-07-23T00:28:19;21.40;91.30
9006;DHT22;62284;50.702;7.140;2022-07-23T00:30:46;21.40;91.60
9006;DHT22;62284;50.702;7.140;2022-07-23T00:33:12;21.40;91.20
9006;DHT22;62284;50.702;7.140;2022-07-23T00:35:40;21.40;91.40
9006;DHT22;62284;50.702;7.140;2022-07-23T00:38:09;21.50;91.40
9006;DHT22;62284;50.702;7.140;2022-07-23T00:40:37;21.50;91.30
9006;DHT22;62284;50.702;7.140;2022-07-23T00:43:04;21.40;91.50
9006;DHT22;62284;50.702;7.140;2022-07-23T00:45:32;21.30;92.00
9006;DHT22;62284;50.702;7.140;2022-07-23T00:47:58;21.20;92.00
9006;DHT22;62284;50.702;7.140;2022-07-23T00:50:26;21.10;91.80
9006;DHT22;62284;50.702;7.140;2022-07-23T00:52:53;21.10;92.20
9006;DHT22;62284;50.702;7.140;2022-07-23T00:55:21;21.00;92.10
9006;DHT22;62284;50.702;7.140;2022-07-23T00:57:48;21.00;92.40
9006;DHT22;62284;50.702;7.140;2022-07-23T01:00:16;20.90;92.20
9006;DHT22;62284;50.702;7.140;2022-07-23T01:02:44;20.90;92.30
9006;DHT22;62284;50.702;7.140;2022-07-23T01:05:11;20.90;92.30
9006;DHT22;62284;50.702;7.140;2022-07-23T01:07:38;21.10;92.30
9006;DHT22;62284;50.702;7.140;2022-07-23T01:10:06;21.10;92.10
9006;DHT22;62284;50.702;7.140;2022-07-23T01:12:55;21.10;92.10
9006;DHT22;62284;50.702;7.140;2022-07-23T01:15:22;21.00;92.30
9006;DHT22;62284;50.702;7.140;2022-07-23T01:17:49;20.90;92.80
9006;DHT22;62284;50.702;7.140;2022-07-23T01:20:16;21.00;92.70
9006;DHT22;62284;50.702;7.140;2022-07-23T01:22:45;21.00;92.90
9006;DHT22;62284;50.702;7.140;2022-07-23T01:25:12;21.00;93.10
9006;DHT22;62284;50.702;7.140;2022-07-23T01:27:39;20.80;93.00
9006;DHT22;62284;50.702;7.140;2022-07-23T01:30:07;20.70;93.50
9006;DHT22;62284;50.702;7.140;2022-07-23T01:32:34;20.70;93.50
9006;DHT22;62284;50.702;7.140;2022-07-23T01:35:02;20.70;93.70
9006;DHT22;62284;50.702;7.140;2022-07-23T01:37:29;20.90;93.60
9006;DHT22;62284;50.702;7.140;2022-07-23T01:39:57;20.70;93.80
9006;DHT22;62284;50.702;7.140;2022-07-23T01:42:24;20.80;93.80
9006;DHT22;62284;50.702;7.140;2022-07-23T01:44:51;20.70;94.00
9006;DHT22;62284;50.702;7.140;2022-07-23T01:47:18;20.70;94.10
9006;DHT22;62284;50.702;7.140;2022-07-23T01:49:45;20.60;94.20
9006;DHT22;62284;50.702;7.140;2022-07-23T01:52:12;20.50;94.50
9006;DHT22;62284;50.702;7.140;2022-07-23T01:54:39;20.50;95.00
9006;DHT22;62284;50.702;7.140;2022-07-23T01:57:08;20.50;94.90
9006;DHT22;62284;50.702;7.140;2022-07-23T01:59:35;20.60;94.80
9006;DHT22;62284;50.702;7.140;2022-07-23T02:02:04;20.60;94.80
9006;DHT22;62284;50.702;7.140;2022-07-23T02:04:31;20.60;94.90
9006;DHT22;62284;50.702;7.140;2022-07-23T02:07:00;20.50;95.20
9006;DHT22;62284;50.702;7.140;2022-07-23T02:09:27;20.50;95.10
9006;DHT22;62284;50.702;7.140;2022-07-23T02:11:54;20.60;95.00
9006;DHT22;62284;50.702;7.140;2022-07-23T02:14:23;20.60;95.30
9006;DHT22;62284;50.702;7.140;2022-07-23T02:16:50;20.60;95.40
9006;DHT22;62284;50.702;7.140;2022-07-23T02:19:16;20.60;95.30
9006;DHT22;62284;50.702;7.140;2022-07-23T02:21:43;20.60;95.10
9006;DHT22;62284;50.702;7.140;2022-07-23T02:24:10;20.60;95.60
9006;DHT22;62284;50.702;7.140;2022-07-23T02:26:37;20.50;95.50
9006;DHT22;62284;50.702;7.140;2022-07-23T02:29:04;20.40;95.70
9006;DHT22;62284;50.702;7.140;2022-07-23T02:31:33;20.30;96.00
9006;DHT22;62284;50.702;7.140;2022-07-23T02:34:00;20.20;96.20
9006;DHT22;62284;50.702;7.140;2022-07-23T02:36:28;20.20;96.40
9006;DHT22;62284;50.702;7.140;2022-07-23T02:38:55;20.10;96.70
9006;DHT22;62284;50.702;7.140;2022-07-23T02:41:22;20.20;96.40
9006;DHT22;62284;50.702;7.140;2022-07-23T02:43:49;20.00;96.80
9006;DHT22;62284;50.702;7.140;2022-07-23T02:46:16;20.00;97.00
9006;DHT22;62284;50.702;7.140;2022-07-23T02:48:44;20.00;97.20
9006;DHT22;62284;50.702;7.140;2022-07-23T02:51:11;20.00;97.20
9006;DHT22;62284;50.702;7.140;2022-07-23T02:53:38;20.00;97.10
9006;DHT22;62284;50.702;7.140;2022-07-23T02:56:05;20.00;97.10
9006;DHT22;62284;50.702;7.140;2022-07-23T02:58:32;19.90;97.40
9006;DHT22;62284;50.702;7.140;2022-07-23T03:00:59;19.90;97.30
9006;DHT22;62284;50.702;7.140;2022-07-23T03:03:26;20.00;97.20
9006;DHT22;62284;50.702;7.140;2022-07-23T03:05:54;19.90;97.60
9006;DHT22;62284;50.702;7.140;2022-07-23T03:08:21;19.80;97.60
9006;DHT22;62284;50.702;7.140;2022-07-23T03:10:48;19.80;97.80
9006;DHT22;62284;50.702;7.140;2022-07-23T03:13:15;19.70;98.10
9006;DHT22;62284;50.702;7.140;2022-07-23T03:15:42;19.60;98.50
9006;DHT22;62284;50.702;7.140;2022-07-23T03:18:10;19.60;98.80
9006;DHT22;62284;50.702;7.140;2022-07-23T03:20:36;19.60;98.90
9006;DHT22;62284;50.702;7.140;2022-07-23T03:25:32;19.50;98.60
9006;DHT22;62284;50.702;7.140;2022-07-23T03:27:59;19.50;99.10
9006;DHT22;62284;50.702;7.140;2022-07-23T03:30:26;19.50;99.10
9006;DHT22;62284;50.702;7.140;2022-07-23T03:32:53;19.40;99.20
9006;DHT22;62284;50.702;7.140;2022-07-23T03:35:20;19.40;99.20
9006;DHT22;62284;50.702;7.140;2022-07-23T03:37:46;19.40;99.50
9006;DHT22;62284;50.702;7.140;2022-07-23T03:40:15;19.30;99.70
9006;DHT22;62284;50.702;7.140;2022-07-23T03:42:42;19.40;99.30
9006;DHT22;62284;50.702;7.140;2022-07-23T03:45:09;19.40;99.50
9006;DHT22;62284;50.702;7.140;2022-07-23T03:47:36;19.30;99.60
9006;DHT22;62284;50.702;7.140;2022-07-23T03:50:05;19.30;99.70
9006;DHT22;62284;50.702;7.140;2022-07-23T03:52:33;19.10;99.90
9006;DHT22;62284;50.702;7.140;2022-07-23T03:55:00;19.00;99.90
9006;DHT22;62284;50.702;7.140;2022-07-23T03:57:29;19.00;99.90
9006;DHT22;62284;50.702;7.140;2022-07-23T03:59:56;19.00;99.90
9006;DHT22;62284;50.702;7.140;2022-07-23T04:02:23;19.00;99.90
9006;DHT22;62284;50.702;7.140;2022-07-23T04:04:50;18.90;99.90
9006;DHT22;62284;50.702;7.140;2022-07-23T04:07:17;19.00;99.90
9006;DHT22;62284;50.702;7.140;2022-07-23T04:09:44;18.90;99.90
9006;DHT22;62284;50.702;7.140;2022-07-23T04:12:11;18.90;99.90
9006;DHT22;62284;50.702;7.140;2022-07-23T04:14:39;19.00;99.90
9006;DHT22;62284;50.702;7.140;2022-07-23T04:17:06;19.00;99.90
9006;DHT22;62284;50.702;7.140;2022-07-23T04:19:33;19.00;99.90
9006;DHT22;62284;50.702;7.140;2022-07-23T04:22:01;19.00;99.90
9006;DHT22;62284;50.702;7.140;2022-07-23T04:24:28;19.00;99.90
9006;DHT22;62284;50.702;7.140;2022-07-23T04:26:55;18.90;99.90
9006;DHT22;62284;50.702;7.140;2022-07-23T04:29:23;18.90;99.90
9006;DHT22;62284;50.702;7.140;2022-07-23T04:31:51;18.80;99.90
9006;DHT22;62284;50.702;7.140;2022-07-23T04:34:18;18.80;99.90
9006;DHT22;62284;50.702;7.140;2022-07-23T04:39:12;19.00;99.90
9006;DHT22;62284;50.702;7.140;2022-07-23T04:41:39;19.00;99.90
9006;DHT22;62284;50.702;7.140;2022-07-23T04:44:06;18.90;99.90
9006;DHT22;62284;50.702;7.140;2022-07-23T04:46:33;18.90;99.90
9006;DHT22;62284;50.702;7.140;2022-07-23T04:49:02;18.80;99.90
9006;DHT22;62284;50.702;7.140;2022-07-23T04:51:29;18.90;99.90
9006;DHT22;62284;50.702;7.140;2022-07-23T04:53:56;18.90;99.90
9006;DHT22;62284;50.702;7.140;2022-07-23T04:56:22;18.90;99.90
9006;DHT22;62284;50.702;7.140;2022-07-23T04:58:49;19.00;99.90
9006;DHT22;62284;50.702;7.140;2022-07-23T05:01:16;19.00;99.90
9006;DHT22;62284;50.702;7.140;2022-07-23T05:03:43;19.00;99.90
9006;DHT22;62284;50.702;7.140;2022-07-23T05:06:11;19.00;99.90
9006;DHT22;62284;50.702;7.140;2022-07-23T05:08:38;19.00;99.90
9006;DHT22;62284;50.702;7.140;2022-07-23T05:11:05;19.10;99.90
9006;DHT22;62284;50.702;7.140;2022-07-23T05:13:32;19.20;99.90
9006;DHT22;62284;50.702;7.140;2022-07-23T05:15:59;19.20;99.90
9006;DHT22;62284;50.702;7.140;2022-07-23T05:18:26;19.40;99.90
9006;DHT22;62284;50.702;7.140;2022-07-23T05:20:53;19.50;99.90
9006;DHT22;62284;50.702;7.140;2022-07-23T05:23:21;19.70;99.60
9006;DHT22;62284;50.702;7.140;2022-07-23T05:25:48;19.80;99.50
9006;DHT22;62284;50.702;7.140;2022-07-23T05:28:15;19.80;99.50
9006;DHT22;62284;50.702;7.140;2022-07-23T05:30:42;19.60;99.50
9006;DHT22;62284;50.702;7.140;2022-07-23T05:33:09;19.70;99.90
9006;DHT22;62284;50.702;7.140;2022-07-23T05:35:36;19.70;99.90
9006;DHT22;62284;50.702;7.140;2022-07-23T05:38:02;19.60;99.90
9006;DHT22;62284;50.702;7.140;2022-07-23T05:40:31;19.60;99.90
9006;DHT22;62284;50.702;7.140;2022-07-23T05:42:58;19.80;99.90
9006;DHT22;62284;50.702;7.140;2022-07-23T05:45:25;19.80;99.90
9006;DHT22;62284;50.702;7.140;2022-07-23T05:47:52;19.80;99.90
9006;DHT22;62284;50.702;7.140;2022-07-23T05:50:19;19.80;99.90
9006;DHT22;62284;50.702;7.140;2022-07-23T05:52:46;19.90;99.90
9006;DHT22;62284;50.702;7.140;2022-07-23T05:55:14;19.90;99.60
9006;DHT22;62284;50.702;7.140;2022-07-23T05:57:42;19.90;99.60
9006;DHT22;62284;50.702;7.140;2022-07-23T06:00:10;19.80;99.70
9006;DHT22;62284;50.702;7.140;2022-07-23T06:02:38;19.80;99.80
9006;DHT22;62284;50.702;7.140;2022-07-23T06:05:06;19.90;99.50
9006;DHT22;62284;50.702;7.140;2022-07-23T06:07:34;20.00;99.50
9006;DHT22;62284;50.702;7.140;2022-07-23T06:10:01;19.90;99.50
9006;DHT22;62284;50.702;7.140;2022-07-23T06:12:28;20.00;99.60
9006;DHT22;62284;50.702;7.140;2022-07-23T06:14:56;20.00;99.60
9006;DHT22;62284;50.702;7.140;2022-07-23T06:17:23;20.00;99.90
9006;DHT22;62284;50.702;7.140;2022-07-23T06:19:50;20.00;99.70
9006;DHT22;62284;50.702;7.140;2022-07-23T06:22:17;20.10;99.30
9006;DHT22;62284;50.702;7.140;2022-07-23T06:24:44;20.20;99.20
9006;DHT22;62284;50.702;7.140;2022-07-23T06:27:11;20.10;99.20
9006;DHT22;62284;50.702;7.140;2022-07-23T06:29:38;20.10;99.30
9006;DHT22;62284;50.702;7.140;2022-07-23T06:32:07;20.10;99.00
9006;DHT22;62284;50.702;7.140;2022-07-23T06:34:34;20.70;98.10
9006;DHT22;62284;50.702;7.140;2022-07-23T06:37:01;20.50;98.20
9006;DHT22;62284;50.702;7.140;2022-07-23T06:39:28;20.30;99.00
9006;DHT22;62284;50.702;7.140;2022-07-23T06:41:55;20.30;98.60
9006;DHT22;62284;50.702;7.140;2022-07-23T06:44:22;20.20;98.70
9006;DHT22;62284;50.702;7.140;2022-07-23T06:46:49;19.90;99.10
9006;DHT22;62284;50.702;7.140;2022-07-23T06:49:18;20.00;99.40
9006;DHT22;62284;50.702;7.140;2022-07-23T06:51:44;20.10;99.50
9006;DHT22;62284;50.702;7.140;2022-07-23T06:54:11;20.10;99.50
9006;DHT22;62284;50.702;7.140;2022-07-23T06:56:38;20.00;99.60
9006;DHT22;62284;50.702;7.140;2022-07-23T06:59:05;20.00;99.60
9006;DHT22;62284;50.702;7.140;2022-07-23T07:01:32;20.00;99.40
9006;DHT22;62284;50.702;7.140;2022-07-23T07:03:59;20.10;99.30
9006;DHT22;62284;50.702;7.140;2022-07-23T07:06:27;20.20;99.10
9006;DHT22;62284;50.702;7.140;2022-07-23T07:08:54;20.20;98.90
9006;DHT22;62284;50.702;7.140;2022-07-23T07:11:21;20.30;99.00
9006;DHT22;62284;50.702;7.140;2022-07-23T07:13:49;20.50;98.20
9006;DHT22;62284;50.702;7.140;2022-07-23T07:16:16;20.60;98.30
9006;DHT22;62284;50.702;7.140;2022-07-23T07:18:43;20.80;98.40
9006;DHT22;62284;50.702;7.140;2022-07-23T07:21:10;21.00;98.10
9006;DHT22;62284;50.702;7.140;2022-07-23T07:23:38;21.00;97.80
9006;DHT22;62284;50.702;7.140;2022-07-23T07:26:05;21.10;97.30
9006;DHT22;62284;50.702;7.140;2022-07-23T07:28:32;21.30;97.30
9006;DHT22;62284;50.702;7.140;2022-07-23T07:30:58;21.20;96.70
9006;DHT22;62284;50.702;7.140;2022-07-23T07:33:25;21.20;96.50
9006;DHT22;62284;50.702;7.140;2022-07-23T07:35:52;21.20;95.90
9006;DHT22;62284;50.702;7.140;2022-07-23T07:38:19;21.20;96.10
9006;DHT22;62284;50.702;7.140;2022-07-23T07:40:47;21.30;93.20
9006;DHT22;62284;50.702;7.140;2022-07-23T07:43:14;21.30;93.90
9006;DHT22;62284;50.702;7.140;2022-07-23T07:45:41;21.40;93.50
9006;DHT22;62284;50.702;7.140;2022-07-23T07:48:08;21.50;92.70
9006;DHT22;62284;50.702;7.140;2022-07-23T07:50:35;21.50;92.80
9006;DHT22;62284;50.702;7.140;2022-07-23T07:53:02;21.60;92.80
9006;DHT22;62284;50.702;7.140;2022-07-23T07:55:29;21.50;92.60
9006;DHT22;62284;50.702;7.140;2022-07-23T07:57:58;21.30;88.50
9006;DHT22;62284;50.702;7.140;2022-07-23T08:00:25;21.40;90.90
9006;DHT22;62284;50.702;7.140;2022-07-23T08:02:53;21.50;90.20
9006;DHT22;62284;50.702;7.140;2022-07-23T08:05:21;21.60;91.00
9006;DHT22;62284;50.702;7.140;2022-07-23T08:07:48;21.70;90.40
9006;DHT22;62284;50.702;7.140;2022-07-23T08:10:15;21.80;90.40
9006;DHT22;62284;50.702;7.140;2022-07-23T08:12:44;21.60;90.50
9006;DHT22;62284;50.702;7.140;2022-07-23T08:15:14;21.60;90.50
9006;DHT22;62284;50.702;7.140;2022-07-23T08:17:41;21.60;90.80
9006;DHT22;62284;50.702;7.140;2022-07-23T08:20:10;21.60;91.50
9006;DHT22;62284;50.702;7.140;2022-07-23T08:22:45;21.60;90.80
9006;DHT22;62284;50.702;7.140;2022-07-23T08:25:12;21.80;90.20
9006;DHT22;62284;50.702;7.140;2022-07-23T08:27:39;21.80;89.80
9006;DHT22;62284;50.702;7.140;2022-07-23T08:30:08;22.00;90.10
9006;DHT22;62284;50.702;7.140;2022-07-23T08:32:49;22.10;88.60
9006;DHT22;62284;50.702;7.140;2022-07-23T08:35:17;22.10;85.10
9006;DHT22;62284;50.702;7.140;2022-07-23T08:37:44;22.20;88.50
9006;DHT22;62284;50.702;7.140;2022-07-23T08:40:12;22.30;87.00
9006;DHT22;62284;50.702;7.140;2022-07-23T08:42:39;22.60;86.90
9006;DHT22;62284;50.702;7.140;2022-07-23T08:45:08;22.80;87.60
9006;DHT22;62284;50.702;7.140;2022-07-23T08:47:37;22.90;85.60
9006;DHT22;62284;50.702;7.140;2022-07-23T08:50:07;22.90;86.50
9006;DHT22;62284;50.702;7.140;2022-07-23T08:52:34;23.00;85.20
9006;DHT22;62284;50.702;7.140;2022-07-23T08:55:03;23.30;85.70
9006;DHT22;62284;50.702;7.140;2022-07-23T08:57:30;23.30;85.70
9006;DHT22;62284;50.702;7.140;2022-07-23T08:59:57;23.40;83.90
9006;DHT22;62284;50.702;7.140;2022-07-23T09:02:24;23.40;83.20
9006;DHT22;62284;50.702;7.140;2022-07-23T09:04:51;23.40;85.90
9006;DHT22;62284;50.702;7.140;2022-07-23T09:07:19;23.60;84.70
9006;DHT22;62284;50.702;7.140;2022-07-23T09:09:46;23.90;83.00
9006;DHT22;62284;50.702;7.140;2022-07-23T09:12:13;23.70;83.00
9006;DHT22;62284;50.702;7.140;2022-07-23T09:14:41;23.70;83.90
9006;DHT22;62284;50.702;7.140;2022-07-23T09:17:10;23.80;82.30
9006;DHT22;62284;50.702;7.140;2022-07-23T09:19:39;24.00;81.10
9006;DHT22;62284;50.702;7.140;2022-07-23T09:22:28;24.10;80.20
9006;DHT22;62284;50.702;7.140;2022-07-23T09:25:11;24.40;79.00
9006;DHT22;62284;50.702;7.140;2022-07-23T09:27:47;24.00;78.70
9006;DHT22;62284;50.702;7.140;2022-07-23T09:30:15;24.30;80.00
9006;DHT22;62284;50.702;7.140;2022-07-23T09:33:07;24.50;79.20
9006;DHT22;62284;50.702;7.140;2022-07-23T09:35:46;24.60;74.20
9006;DHT22;62284;50.702;7.140;2022-07-23T09:38:15;24.30;77.40
9006;DHT22;62284;50.702;7.140;2022-07-23T09:40:43;24.40;76.00
9006;DHT22;62284;50.702;7.140;2022-07-23T09:43:10;24.60;75.90
9006;DHT22;62284;50.702;7.140;2022-07-23T09:45:37;24.60;75.50
9006;DHT22;62284;50.702;7.140;2022-07-23T09:48:11;24.90;75.50
9006;DHT22;62284;50.702;7.140;2022-07-23T09:50:38;25.30;72.70
9006;DHT22;62284;50.702;7.140;2022-07-23T09:53:07;25.40;71.80
9006;DHT22;62284;50.702;7.140;2022-07-23T09:55:36;25.40;72.10
9006;DHT22;62284;50.702;7.140;2022-07-23T09:58:04;25.50;70.60
9006;DHT22;62284;50.702;7.140;2022-07-23T10:00:32;25.30;69.60
9006;DHT22;62284;50.702;7.140;2022-07-23T10:02:59;25.40;69.70
9006;DHT22;62284;50.702;7.140;2022-07-23T10:05:28;25.60;69.50
9006;DHT22;62284;50.702;7.140;2022-07-23T10:07:56;25.80;68.30
9006;DHT22;62284;50.702;7.140;2022-07-23T10:10:27;25.70;67.00
9006;DHT22;62284;50.702;7.140;2022-07-23T10:12:56;26.00;65.90
9006;DHT22;62284;50.702;7.140;2022-07-23T10:15:50;26.00;65.70
9006;DHT22;62284;50.702;7.140;2022-07-23T10:18:17;26.50;64.00
9006;DHT22;62284;50.702;7.140;2022-07-23T10:20:44;27.20;61.50
9006;DHT22;62284;50.702;7.140;2022-07-23T10:23:18;28.00;58.30
9006;DHT22;62284;50.702;7.140;2022-07-23T10:25:54;28.70;54.20
9006;DHT22;62284;50.702;7.140;2022-07-23T10:28:42;30.00;53.90
9006;DHT22;62284;50.702;7.140;2022-07-23T10:31:20;31.40;49.50
9006;DHT22;62284;50.702;7.140;2022-07-23T10:33:59;32.60;46.40
9006;DHT22;62284;50.702;7.140;2022-07-23T10:36:37;32.70;45.90
9006;DHT22;62284;50.702;7.140;2022-07-23T10:39:10;32.10;44.40
9006;DHT22;62284;50.702;7.140;2022-07-23T10:41:41;32.50;44.10
9006;DHT22;62284;50.702;7.140;2022-07-23T10:44:11;32.30;43.50
9006;DHT22;62284;50.702;7.140;2022-07-23T10:46:54;33.50;43.20
9006;DHT22;62284;50.702;7.140;2022-07-23T10:49:27;34.40;41.30
9006;DHT22;62284;50.702;7.140;2022-07-23T10:52:19;35.30;40.00
9006;DHT22;62284;50.702;7.140;2022-07-23T10:54:48;35.30;38.60
9006;DHT22;62284;50.702;7.140;2022-07-23T10:57:17;35.20;40.00
9006;DHT22;62284;50.702;7.140;2022-07-23T11:00:13;35.10;39.10
9006;DHT22;62284;50.702;7.140;2022-07-23T11:02:41;35.20;37.30
9006;DHT22;62284;50.702;7.140;2022-07-23T11:05:11;36.70;36.90
9006;DHT22;62284;50.702;7.140;2022-07-23T11:08:12;36.70;35.30
9006;DHT22;62284;50.702;7.140;2022-07-23T11:10:43;36.00;36.20
9006;DHT22;62284;50.702;7.140;2022-07-23T11:13:26;36.00;36.00
9006;DHT22;62284;50.702;7.140;2022-07-23T11:16:21;35.00;36.00
9006;DHT22;62284;50.702;7.140;2022-07-23T11:19:05;36.40;35.30
9006;DHT22;62284;50.702;7.140;2022-07-23T11:21:47;37.70;33.70
9006;DHT22;62284;50.702;7.140;2022-07-23T11:24:16;38.20;33.00
9006;DHT22;62284;50.702;7.140;2022-07-23T11:26:45;38.00;32.50
9006;DHT22;62284;50.702;7.140;2022-07-23T11:29:40;38.20;32.50
9006;DHT22;62284;50.702;7.140;2022-07-23T11:32:29;38.30;32.30
9006;DHT22;62284;50.702;7.140;2022-07-23T11:34:56;38.60;31.60
9006;DHT22;62284;50.702;7.140;2022-07-23T11:37:32;37.50;31.80
9006;DHT22;62284;50.702;7.140;2022-07-23T11:39:59;37.20;31.40
9006;DHT22;62284;50.702;7.140;2022-07-23T11:42:26;37.20;32.90
9006;DHT22;62284;50.702;7.140;2022-07-23T11:44:53;37.80;32.20
9006;DHT22;62284;50.702;7.140;2022-07-23T11:47:35;38.80;31.30
9006;DHT22;62284;50.702;7.140;2022-07-23T11:50:04;39.20;30.00
9006;DHT22;62284;50.702;7.140;2022-07-23T11:52:32;38.90;30.60
9006;DHT22;62284;50.702;7.140;2022-07-23T11:55:01;38.20;31.20
9006;DHT22;62284;50.702;7.140;2022-07-23T11:57:29;38.10;31.10
9006;DHT22;62284;50.702;7.140;2022-07-23T12:00:04;38.10;30.70
9006;DHT22;62284;50.702;7.140;2022-07-23T12:02:31;38.20;31.10
9006;DHT22;62284;50.702;7.140;2022-07-23T12:04:59;38.30;31.60
9006;DHT22;62284;50.702;7.140;2022-07-23T12:07:31;38.80;31.00
9006;DHT22;62284;50.702;7.140;2022-07-23T12:10:00;39.00;30.90
9006;DHT22;62284;50.702;7.140;2022-07-23T12:12:35;38.70;30.40
9006;DHT22;62284;50.702;7.140;2022-07-23T12:15:04;38.90;30.20
9006;DHT22;62284;50.702;7.140;2022-07-23T12:17:33;38.50;31.40
9006;DHT22;62284;50.702;7.140;2022-07-23T12:20:03;38.70;30.70
9006;DHT22;62284;50.702;7.140;2022-07-23T12:22:36;39.00;29.80
9006;DHT22;62284;50.702;7.140;2022-07-23T12:25:05;38.50;30.00
9006;DHT22;62284;50.702;7.140;2022-07-23T12:27:33;38.70;30.90
9006;DHT22;62284;50.702;7.140;2022-07-23T12:30:18;37.60;31.40
9006;DHT22;62284;50.702;7.140;2022-07-23T12:32:47;37.30;32.40
9006;DHT22;62284;50.702;7.140;2022-07-23T12:35:16;36.90;32.90
9006;DHT22;62284;50.702;7.140;2022-07-23T12:37:45;36.70;32.50
9006;DHT22;62284;50.702;7.140;2022-07-23T12:40:19;37.10;33.40
9006;DHT22;62284;50.702;7.140;2022-07-23T12:42:47;37.40;32.80
9006;DHT22;62284;50.702;7.140;2022-07-23T12:45:14;37.00;32.40
9006;DHT22;62284;50.702;7.140;2022-07-23T12:48:05;36.70;32.40
9006;DHT22;62284;50.702;7.140;2022-07-23T12:50:39;36.70;31.90
9006;DHT22;62284;50.702;7.140;2022-07-23T12:53:09;36.70;32.50
9006;DHT22;62284;50.702;7.140;2022-07-23T12:55:37;36.20;32.70
9006;DHT22;62284;50.702;7.140;2022-07-23T12:58:10;36.10;31.70
9006;DHT22;62284;50.702;7.140;2022-07-23T13:01:05;36.10;33.50
9006;DHT22;62284;50.702;7.140;2022-07-23T13:03:37;36.30;33.10
9006;DHT22;62284;50.702;7.140;2022-07-23T13:06:07;36.40;33.00
9006;DHT22;62284;50.702;7.140;2022-07-23T13:08:37;36.60;32.40
9006;DHT22;62284;50.702;7.140;2022-07-23T13:11:06;36.50;32.40
9006;DHT22;62284;50.702;7.140;2022-07-23T13:13:34;36.30;31.50
9006;DHT22;62284;50.702;7.140;2022-07-23T13:16:02;36.80;31.00
9006;DHT22;62284;50.702;7.140;2022-07-23T13:18:29;36.00;31.20
9006;DHT22;62284;50.702;7.140;2022-07-23T13:20:59;36.50;31.50
9006;DHT22;62284;50.702;7.140;2022-07-23T13:23:28;37.30;30.30
9006;DHT22;62284;50.702;7.140;2022-07-23T13:25:55;36.60;30.00
9006;DHT22;62284;50.702;7.140;2022-07-23T13:28:22;36.80;32.00
9006;DHT22;62284;50.702;7.140;2022-07-23T13:30:50;36.70;30.30
9006;DHT22;62284;50.702;7.140;2022-07-23T13:33:18;37.00;30.50
9006;DHT22;62284;50.702;7.140;2022-07-23T13:35:45;35.70;30.80
9006;DHT22;62284;50.702;7.140;2022-07-23T13:38:13;36.10;31.40
9006;DHT22;62284;50.702;7.140;2022-07-23T13:40:43;36.40;30.70
9006;DHT22;62284;50.702;7.140;2022-07-23T13:43:12;36.10;31.60
9006;DHT22;62284;50.702;7.140;2022-07-23T13:45:40;36.00;31.30
9006;DHT22;62284;50.702;7.140;2022-07-23T13:48:08;36.00;31.10
9006;DHT22;62284;50.702;7.140;2022-07-23T13:50:35;35.80;32.30
9006;DHT22;62284;50.702;7.140;2022-07-23T13:53:03;35.70;32.20
9006;DHT22;62284;50.702;7.140;2022-07-23T13:55:30;36.10;32.10
9006;DHT22;62284;50.702;7.140;2022-07-23T13:57:59;36.40;31.40
9006;DHT22;62284;50.702;7.140;2022-07-23T14:00:28;36.40;31.30
9006;DHT22;62284;50.702;7.140;2022-07-23T14:02:56;36.50;31.70
9006;DHT22;62284;50.702;7.140;2022-07-23T14:05:26;36.30;31.90
9006;DHT22;62284;50.702;7.140;2022-07-23T14:07:53;36.50;31.90
9006;DHT22;62284;50.702;7.140;2022-07-23T14:10:22;36.50;32.00
9006;DHT22;62284;50.702;7.140;2022-07-23T14:12:51;36.80;31.90
9006;DHT22;62284;50.702;7.140;2022-07-23T14:15:19;36.90;31.60
9006;DHT22;62284;50.702;7.140;2022-07-23T14:17:46;37.10;32.00
9006;DHT22;62284;50.702;7.140;2022-07-23T14:20:14;37.10;31.20
9006;DHT22;62284;50.702;7.140;2022-07-23T14:22:41;37.10;31.10
9006;DHT22;62284;50.702;7.140;2022-07-23T14:25:09;36.00;31.30
9006;DHT22;62284;50.702;7.140;2022-07-23T14:27:36;36.20;31.50
9006;DHT22;62284;50.702;7.140;2022-07-23T14:30:05;36.40;31.70
9006;DHT22;62284;50.702;7.140;2022-07-23T14:32:34;36.70;31.70
9006;DHT22;62284;50.702;7.140;2022-07-23T14:35:02;37.50;31.00
9006;DHT22;62284;50.702;7.140;2022-07-23T14:37:29;37.90;30.40
9006;DHT22;62284;50.702;7.140;2022-07-23T14:39:56;38.50;29.70
9006;DHT22;62284;50.702;7.140;2022-07-23T14:42:23;38.90;29.40
9006;DHT22;62284;50.702;7.140;2022-07-23T14:44:49;39.90;28.90
9006;DHT22;62284;50.702;7.140;2022-07-23T14:47:16;39.80;28.30
9006;DHT22;62284;50.702;7.140;2022-07-23T14:49:44;39.40;28.70
9006;DHT22;62284;50.702;7.140;2022-07-23T14:52:11;39.40;29.00
9006;DHT22;62284;50.702;7.140;2022-07-23T14:54:38;39.90;28.90
9006;DHT22;62284;50.702;7.140;2022-07-23T14:57:05;39.00;28.60
9006;DHT22;62284;50.702;7.140;2022-07-23T14:59:34;39.20;29.40
9006;DHT22;62284;50.702;7.140;2022-07-23T15:02:01;38.70;28.80
9006;DHT22;62284;50.702;7.140;2022-07-23T15:04:28;39.20;28.50
9006;DHT22;62284;50.702;7.140;2022-07-23T15:06:57;39.00;28.40
9006;DHT22;62284;50.702;7.140;2022-07-23T15:09:24;39.40;28.90
9006;DHT22;62284;50.702;7.140;2022-07-23T15:11:51;40.30;28.10
9006;DHT22;62284;50.702;7.140;2022-07-23T15:14:17;40.00;27.80
9006;DHT22;62284;50.702;7.140;2022-07-23T15:16:44;39.40;27.40
9006;DHT22;62284;50.702;7.140;2022-07-23T15:19:11;39.10;28.40
9006;DHT22;62284;50.702;7.140;2022-07-23T15:21:38;40.10;28.20
9006;DHT22;62284;50.702;7.140;2022-07-23T15:24:07;40.90;27.10
9006;DHT22;62284;50.702;7.140;2022-07-23T15:26:34;40.00;27.30
9006;DHT22;62284;50.702;7.140;2022-07-23T15:29:02;39.00;28.00
9006;DHT22;62284;50.702;7.140;2022-07-23T15:31:31;38.20;29.10
9006;DHT22;62284;50.702;7.140;2022-07-23T15:33:58;38.00;28.90
9006;DHT22;62284;50.702;7.140;2022-07-23T15:36:25;38.40;29.00
9006;DHT22;62284;50.702;7.140;2022-07-23T15:38:52;38.40;28.20
9006;DHT22;62284;50.702;7.140;2022-07-23T15:41:20;38.40;28.90
9006;DHT22;62284;50.702;7.140;2022-07-23T15:43:47;38.70;28.80
9006;DHT22;62284;50.702;7.140;2022-07-23T15:46:14;37.90;29.10
9006;DHT22;62284;50.702;7.140;2022-07-23T15:48:42;36.60;30.30
9006;DHT22;62284;50.702;7.140;2022-07-23T15:51:10;35.80;31.80
9006;DHT22;62284;50.702;7.140;2022-07-23T15:53:37;35.80;32.50
9006;DHT22;62284;50.702;7.140;2022-07-23T15:56:06;35.70;32.10
9006;DHT22;62284;50.702;7.140;2022-07-23T15:58:35;36.40;31.90
9006;DHT22;62284;50.702;7.140;2022-07-23T16:01:02;37.00;30.00